Huvudsida
METAR-TAF:

METAR-TAF

Flygplatser :

Sanandaj, Iran

latitud: 35-20N, longitud: 047-00E, höjd: 1373 m

Aktuellt väderrapport

Denna rapport gjordes för 46 minuter sedan, klockan 04:00 UTC
Vind 12 kt från nord/nordväst
Temperatur 4°C
Fuktighet 65%
Tryck 1020 hPa
Sikt 10 km eller mer
Få moln på en höjd av 3500 ft, Cumulonimbus.
Spridda moln på en höjd av 4000 ft
Brutna moln på en höjd av 8000 ft

METAR: OICS 200400Z 34012KT 9999 FEW035CB SCT040 BKN080 04/M02 Q1019 A3011

Tid: 08:16 (04:46 UTC)


TAF: saknas

Aktuella väderrapporter och prognoser från 4000 flygplatser (METAR- och TAF-rapporter).

De tillgängliga stationerna syns som gula och röda prickar på kartan.

För musen över prickarna för att se namnen på stationerna.

Klicka sedan för att få väderrapporter och prognoser.

För att ändra kartan: Klicka på de gröna knapparna med ett svart kors på för att zooma in; den gröna knappen med ett streck på för att zooma ut; eller på de gröna pilarna för angränsande kartor.


METAR-TAF: